sensor_id;sensor_type;location;lat;lon;timestamp;P1;durP1;ratioP1;P2;durP2;ratioP2
24637;SDS011;12773;50.162;8.548;2024-03-23T00:53:50;32.30;;;13.83;;
24637;SDS011;12773;50.162;8.548;2024-03-23T00:56:38;32.75;;;14.07;;
24637;SDS011;12773;50.162;8.548;2024-03-23T00:59:25;33.10;;;14.23;;
24637;SDS011;12773;50.162;8.548;2024-03-23T01:02:14;36.17;;;14.90;;
24637;SDS011;12773;50.162;8.548;2024-03-23T01:05:01;28.40;;;12.95;;
24637;SDS011;12773;50.162;8.548;2024-03-23T01:07:48;29.98;;;13.13;;
24637;SDS011;12773;50.162;8.548;2024-03-23T01:10:36;38.10;;;14.28;;
24637;SDS011;12773;50.162;8.548;2024-03-23T01:13:23;31.15;;;13.75;;
24637;SDS011;12773;50.162;8.548;2024-03-23T01:16:11;33.40;;;13.50;;
24637;SDS011;12773;50.162;8.548;2024-03-23T01:18:58;30.17;;;13.08;;
24637;SDS011;12773;50.162;8.548;2024-03-23T01:21:46;28.77;;;13.03;;
24637;SDS011;12773;50.162;8.548;2024-03-23T01:24:35;31.17;;;13.48;;
24637;SDS011;12773;50.162;8.548;2024-03-23T01:27:22;27.77;;;11.25;;
24637;SDS011;12773;50.162;8.548;2024-03-23T01:30:10;29.32;;;12.13;;
24637;SDS011;12773;50.162;8.548;2024-03-23T01:32:59;28.25;;;12.68;;
24637;SDS011;12773;50.162;8.548;2024-03-23T01:35:48;30.17;;;13.30;;
24637;SDS011;12773;50.162;8.548;2024-03-23T01:38:36;30.10;;;13.58;;
24637;SDS011;12773;50.162;8.548;2024-03-23T01:41:24;36.05;;;14.30;;
24637;SDS011;12773;50.162;8.548;2024-03-23T01:44:11;32.30;;;13.43;;
24637;SDS011;12773;50.162;8.548;2024-03-23T01:46:59;32.90;;;13.45;;
24637;SDS011;12773;50.162;8.548;2024-03-23T01:49:46;31.05;;;13.60;;
24637;SDS011;12773;50.162;8.548;2024-03-23T01:52:34;26.30;;;11.57;;
24637;SDS011;12773;50.162;8.548;2024-03-23T01:55:21;28.25;;;13.18;;
24637;SDS011;12773;50.162;8.548;2024-03-23T01:58:09;31.90;;;12.75;;
24637;SDS011;12773;50.162;8.548;2024-03-23T02:01:01;27.62;;;12.93;;
24637;SDS011;12773;50.162;8.548;2024-03-23T02:03:45;34.38;;;12.75;;
24637;SDS011;12773;50.162;8.548;2024-03-23T02:06:33;27.25;;;11.78;;
24637;SDS011;12773;50.162;8.548;2024-03-23T02:09:21;27.22;;;12.10;;
24637;SDS011;12773;50.162;8.548;2024-03-23T02:12:08;26.75;;;12.18;;
24637;SDS011;12773;50.162;8.548;2024-03-23T02:14:57;28.60;;;12.80;;
24637;SDS011;12773;50.162;8.548;2024-03-23T02:17:44;26.60;;;11.78;;
24637;SDS011;12773;50.162;8.548;2024-03-23T02:20:31;25.02;;;11.08;;
24637;SDS011;12773;50.162;8.548;2024-03-23T02:23:19;27.65;;;11.45;;
24637;SDS011;12773;50.162;8.548;2024-03-23T02:26:06;24.27;;;11.10;;
24637;SDS011;12773;50.162;8.548;2024-03-23T02:28:54;21.87;;;10.60;;
24637;SDS011;12773;50.162;8.548;2024-03-23T02:31:41;22.90;;;10.72;;
24637;SDS011;12773;50.162;8.548;2024-03-23T02:34:29;22.65;;;10.08;;
24637;SDS011;12773;50.162;8.548;2024-03-23T02:37:17;24.02;;;9.63;;
24637;SDS011;12773;50.162;8.548;2024-03-23T02:40:05;19.15;;;9.70;;
24637;SDS011;12773;50.162;8.548;2024-03-23T02:42:52;21.93;;;10.03;;
24637;SDS011;12773;50.162;8.548;2024-03-23T02:45:40;24.32;;;10.38;;
24637;SDS011;12773;50.162;8.548;2024-03-23T02:48:28;24.35;;;10.03;;
24637;SDS011;12773;50.162;8.548;2024-03-23T02:51:15;23.25;;;9.68;;
24637;SDS011;12773;50.162;8.548;2024-03-23T02:54:03;20.72;;;9.43;;
24637;SDS011;12773;50.162;8.548;2024-03-23T02:56:50;20.85;;;9.25;;
24637;SDS011;12773;50.162;8.548;2024-03-23T02:59:38;21.15;;;9.73;;
24637;SDS011;12773;50.162;8.548;2024-03-23T03:02:25;23.22;;;10.38;;
24637;SDS011;12773;50.162;8.548;2024-03-23T03:05:12;25.00;;;10.85;;
24637;SDS011;12773;50.162;8.548;2024-03-23T03:08:01;20.50;;;9.20;;
24637;SDS011;12773;50.162;8.548;2024-03-23T03:10:49;22.13;;;9.33;;
24637;SDS011;12773;50.162;8.548;2024-03-23T03:13:36;23.52;;;9.93;;
24637;SDS011;12773;50.162;8.548;2024-03-23T03:16:24;22.00;;;9.15;;
24637;SDS011;12773;50.162;8.548;2024-03-23T03:19:11;23.07;;;9.70;;
24637;SDS011;12773;50.162;8.548;2024-03-23T03:21:59;22.87;;;11.20;;
24637;SDS011;12773;50.162;8.548;2024-03-23T03:24:46;31.00;;;10.68;;
24637;SDS011;12773;50.162;8.548;2024-03-23T03:27:34;21.68;;;10.45;;
24637;SDS011;12773;50.162;8.548;2024-03-23T03:30:21;24.00;;;11.15;;
24637;SDS011;12773;50.162;8.548;2024-03-23T03:33:09;23.10;;;11.08;;
24637;SDS011;12773;50.162;8.548;2024-03-23T03:35:56;22.65;;;10.82;;
24637;SDS011;12773;50.162;8.548;2024-03-23T03:38:43;20.65;;;9.50;;
24637;SDS011;12773;50.162;8.548;2024-03-23T03:41:31;20.52;;;9.65;;
24637;SDS011;12773;50.162;8.548;2024-03-23T03:44:19;20.82;;;9.58;;
24637;SDS011;12773;50.162;8.548;2024-03-23T03:47:07;22.73;;;10.10;;
24637;SDS011;12773;50.162;8.548;2024-03-23T03:49:55;22.02;;;10.48;;
24637;SDS011;12773;50.162;8.548;2024-03-23T03:52:42;28.47;;;11.80;;
24637;SDS011;12773;50.162;8.548;2024-03-23T03:55:29;31.07;;;13.28;;
24637;SDS011;12773;50.162;8.548;2024-03-23T03:58:17;38.88;;;17.17;;
24637;SDS011;12773;50.162;8.548;2024-03-23T04:01:05;43.50;;;17.42;;
24637;SDS011;12773;50.162;8.548;2024-03-23T04:03:52;28.77;;;12.43;;
24637;SDS011;12773;50.162;8.548;2024-03-23T04:06:40;25.37;;;10.00;;
24637;SDS011;12773;50.162;8.548;2024-03-23T04:09:27;17.00;;;6.47;;
24637;SDS011;12773;50.162;8.548;2024-03-23T04:12:15;14.10;;;5.72;;
24637;SDS011;12773;50.162;8.548;2024-03-23T04:15:03;10.88;;;5.37;;
24637;SDS011;12773;50.162;8.548;2024-03-23T04:17:50;5.60;;;2.87;;
24637;SDS011;12773;50.162;8.548;2024-03-23T04:20:38;4.72;;;2.55;;
24637;SDS011;12773;50.162;8.548;2024-03-23T04:23:26;3.77;;;1.90;;
24637;SDS011;12773;50.162;8.548;2024-03-23T04:26:14;3.00;;;1.55;;
24637;SDS011;12773;50.162;8.548;2024-03-23T04:29:02;2.55;;;1.45;;
24637;SDS011;12773;50.162;8.548;2024-03-23T04:31:49;5.15;;;1.07;;
24637;SDS011;12773;50.162;8.548;2024-03-23T04:34:37;1.30;;;0.90;;
24637;SDS011;12773;50.162;8.548;2024-03-23T04:37:24;1.35;;;0.90;;
24637;SDS011;12773;50.162;8.548;2024-03-23T04:40:12;1.45;;;0.68;;
24637;SDS011;12773;50.162;8.548;2024-03-23T04:42:59;1.05;;;0.70;;
24637;SDS011;12773;50.162;8.548;2024-03-23T04:45:47;2.17;;;0.80;;
24637;SDS011;12773;50.162;8.548;2024-03-23T04:48:34;2.00;;;0.68;;
24637;SDS011;12773;50.162;8.548;2024-03-23T04:51:22;1.75;;;0.98;;
24637;SDS011;12773;50.162;8.548;2024-03-23T04:54:10;1.02;;;0.90;;
24637;SDS011;12773;50.162;8.548;2024-03-23T04:56:58;1.85;;;1.20;;
24637;SDS011;12773;50.162;8.548;2024-03-23T04:59:46;2.55;;;1.37;;
24637;SDS011;12773;50.162;8.548;2024-03-23T05:02:33;3.05;;;1.50;;
24637;SDS011;12773;50.162;8.548;2024-03-23T05:05:21;3.52;;;1.57;;
24637;SDS011;12773;50.162;8.548;2024-03-23T05:08:09;1.77;;;1.10;;
24637;SDS011;12773;50.162;8.548;2024-03-23T05:10:56;2.42;;;1.55;;
24637;SDS011;12773;50.162;8.548;2024-03-23T05:13:44;1.85;;;1.32;;
24637;SDS011;12773;50.162;8.548;2024-03-23T05:16:32;4.00;;;1.50;;
24637;SDS011;12773;50.162;8.548;2024-03-23T05:19:20;3.25;;;1.42;;
24637;SDS011;12773;50.162;8.548;2024-03-23T05:22:07;3.08;;;1.20;;
24637;SDS011;12773;50.162;8.548;2024-03-23T05:24:55;3.62;;;1.50;;
24637;SDS011;12773;50.162;8.548;2024-03-23T05:27:42;1.77;;;1.52;;
24637;SDS011;12773;50.162;8.548;2024-03-23T05:30:30;5.37;;;1.45;;
24637;SDS011;12773;50.162;8.548;2024-03-23T05:33:18;1.77;;;1.30;;
24637;SDS011;12773;50.162;8.548;2024-03-23T05:36:06;2.02;;;1.40;;
24637;SDS011;12773;50.162;8.548;2024-03-23T05:38:55;3.20;;;1.80;;
24637;SDS011;12773;50.162;8.548;2024-03-23T05:41:43;3.83;;;2.25;;
24637;SDS011;12773;50.162;8.548;2024-03-23T05:44:31;3.67;;;2.52;;
24637;SDS011;12773;50.162;8.548;2024-03-23T05:47:18;2.87;;;2.05;;
24637;SDS011;12773;50.162;8.548;2024-03-23T05:50:05;1.95;;;1.25;;
24637;SDS011;12773;50.162;8.548;2024-03-23T05:52:55;3.08;;;1.35;;
24637;SDS011;12773;50.162;8.548;2024-03-23T05:55:42;2.80;;;1.32;;
24637;SDS011;12773;50.162;8.548;2024-03-23T05:58:30;2.00;;;1.12;;
24637;SDS011;12773;50.162;8.548;2024-03-23T06:01:18;1.02;;;0.72;;
24637;SDS011;12773;50.162;8.548;2024-03-23T06:04:05;1.50;;;0.80;;
24637;SDS011;12773;50.162;8.548;2024-03-23T06:06:53;1.12;;;0.70;;
24637;SDS011;12773;50.162;8.548;2024-03-23T06:09:41;0.85;;;0.80;;
24637;SDS011;12773;50.162;8.548;2024-03-23T06:12:28;0.70;;;0.50;;
24637;SDS011;12773;50.162;8.548;2024-03-23T06:15:15;0.90;;;0.70;;
24637;SDS011;12773;50.162;8.548;2024-03-23T06:18:03;1.52;;;0.60;;
24637;SDS011;12773;50.162;8.548;2024-03-23T06:20:51;0.72;;;0.50;;
24637;SDS011;12773;50.162;8.548;2024-03-23T06:23:38;1.02;;;0.30;;
24637;SDS011;12773;50.162;8.548;2024-03-23T06:26:29;0.50;;;0.40;;
24637;SDS011;12773;50.162;8.548;2024-03-23T06:29:16;0.50;;;0.40;;
24637;SDS011;12773;50.162;8.548;2024-03-23T06:32:04;1.65;;;0.70;;
24637;SDS011;12773;50.162;8.548;2024-03-23T06:34:51;11.65;;;4.20;;
24637;SDS011;12773;50.162;8.548;2024-03-23T06:37:39;3.67;;;2.17;;
24637;SDS011;12773;50.162;8.548;2024-03-23T06:40:30;2.55;;;0.70;;
24637;SDS011;12773;50.162;8.548;2024-03-23T06:43:17;0.85;;;0.40;;
24637;SDS011;12773;50.162;8.548;2024-03-23T06:46:05;0.50;;;0.47;;
24637;SDS011;12773;50.162;8.548;2024-03-23T06:48:52;1.45;;;0.80;;
24637;SDS011;12773;50.162;8.548;2024-03-23T06:51:40;0.93;;;0.60;;
24637;SDS011;12773;50.162;8.548;2024-03-23T06:54:28;2.92;;;0.60;;
24637;SDS011;12773;50.162;8.548;2024-03-23T06:57:15;0.85;;;0.72;;
24637;SDS011;12773;50.162;8.548;2024-03-23T07:00:02;2.17;;;0.70;;
24637;SDS011;12773;50.162;8.548;2024-03-23T07:02:52;2.08;;;0.90;;
24637;SDS011;12773;50.162;8.548;2024-03-23T07:05:40;3.45;;;0.80;;
24637;SDS011;12773;50.162;8.548;2024-03-23T07:08:28;2.42;;;0.90;;
24637;SDS011;12773;50.162;8.548;2024-03-23T07:11:19;2.25;;;0.80;;
24637;SDS011;12773;50.162;8.548;2024-03-23T07:14:06;4.28;;;1.12;;
24637;SDS011;12773;50.162;8.548;2024-03-23T07:16:55;6.00;;;1.37;;
24637;SDS011;12773;50.162;8.548;2024-03-23T07:19:42;3.95;;;1.30;;
24637;SDS011;12773;50.162;8.548;2024-03-23T07:22:30;4.97;;;1.60;;
24637;SDS011;12773;50.162;8.548;2024-03-23T07:25:17;5.62;;;1.62;;
24637;SDS011;12773;50.162;8.548;2024-03-23T07:28:07;3.58;;;1.47;;
24637;SDS011;12773;50.162;8.548;2024-03-23T07:31:02;9.13;;;2.12;;
24637;SDS011;12773;50.162;8.548;2024-03-23T07:33:51;11.08;;;1.85;;
24637;SDS011;12773;50.162;8.548;2024-03-23T07:36:38;8.58;;;1.98;;
24637;SDS011;12773;50.162;8.548;2024-03-23T07:39:26;9.35;;;1.85;;
24637;SDS011;12773;50.162;8.548;2024-03-23T07:42:13;9.85;;;2.15;;
24637;SDS011;12773;50.162;8.548;2024-03-23T07:45:01;8.50;;;2.95;;
24637;SDS011;12773;50.162;8.548;2024-03-23T07:47:50;16.57;;;3.17;;
24637;SDS011;12773;50.162;8.548;2024-03-23T07:50:37;10.45;;;2.85;;
24637;SDS011;12773;50.162;8.548;2024-03-23T07:53:25;13.78;;;4.60;;
24637;SDS011;12773;50.162;8.548;2024-03-23T07:56:13;14.98;;;4.90;;
24637;SDS011;12773;50.162;8.548;2024-03-23T07:59:01;14.13;;;5.17;;
24637;SDS011;12773;50.162;8.548;2024-03-23T08:01:50;13.55;;;5.12;;
24637;SDS011;12773;50.162;8.548;2024-03-23T08:04:37;17.32;;;6.25;;
24637;SDS011;12773;50.162;8.548;2024-03-23T08:07:25;11.95;;;5.50;;
24637;SDS011;12773;50.162;8.548;2024-03-23T08:10:12;12.95;;;5.72;;
24637;SDS011;12773;50.162;8.548;2024-03-23T08:13:00;12.10;;;5.08;;
24637;SDS011;12773;50.162;8.548;2024-03-23T08:15:48;15.95;;;5.40;;
24637;SDS011;12773;50.162;8.548;2024-03-23T08:18:36;10.38;;;5.12;;
24637;SDS011;12773;50.162;8.548;2024-03-23T08:21:23;10.95;;;4.67;;
24637;SDS011;12773;50.162;8.548;2024-03-23T08:24:12;14.90;;;5.28;;
24637;SDS011;12773;50.162;8.548;2024-03-23T08:26:59;11.55;;;4.35;;
24637;SDS011;12773;50.162;8.548;2024-03-23T08:29:46;17.15;;;5.30;;
24637;SDS011;12773;50.162;8.548;2024-03-23T08:32:34;8.55;;;4.20;;
24637;SDS011;12773;50.162;8.548;2024-03-23T08:35:21;12.28;;;4.03;;
24637;SDS011;12773;50.162;8.548;2024-03-23T08:38:09;8.30;;;3.67;;
24637;SDS011;12773;50.162;8.548;2024-03-23T08:40:57;11.70;;;3.98;;
24637;SDS011;12773;50.162;8.548;2024-03-23T08:43:45;8.23;;;3.17;;
24637;SDS011;12773;50.162;8.548;2024-03-23T08:46:33;12.45;;;3.20;;
24637;SDS011;12773;50.162;8.548;2024-03-23T08:51:45;16.82;;;3.72;;
24637;SDS011;12773;50.162;8.548;2024-03-23T08:54:32;14.75;;;3.62;;
24637;SDS011;12773;50.162;8.548;2024-03-23T08:57:20;11.00;;;3.35;;
24637;SDS011;12773;50.162;8.548;2024-03-23T09:00:07;10.88;;;3.20;;
24637;SDS011;12773;50.162;8.548;2024-03-23T09:02:57;12.23;;;3.47;;
24637;SDS011;12773;50.162;8.548;2024-03-23T09:05:44;15.43;;;3.80;;
24637;SDS011;12773;50.162;8.548;2024-03-23T09:08:32;13.30;;;3.60;;
24637;SDS011;12773;50.162;8.548;2024-03-23T09:11:22;16.70;;;4.00;;
24637;SDS011;12773;50.162;8.548;2024-03-23T09:14:10;15.65;;;3.70;;
24637;SDS011;12773;50.162;8.548;2024-03-23T09:16:57;11.03;;;3.27;;
24637;SDS011;12773;50.162;8.548;2024-03-23T09:19:45;14.85;;;4.08;;
24637;SDS011;12773;50.162;8.548;2024-03-23T09:22:32;12.90;;;3.15;;
24637;SDS011;12773;50.162;8.548;2024-03-23T09:25:20;18.10;;;4.60;;
24637;SDS011;12773;50.162;8.548;2024-03-23T09:28:07;13.55;;;3.52;;
24637;SDS011;12773;50.162;8.548;2024-03-23T09:30:55;20.77;;;4.10;;
24637;SDS011;12773;50.162;8.548;2024-03-23T09:33:44;15.48;;;3.50;;
24637;SDS011;12773;50.162;8.548;2024-03-23T09:36:31;15.18;;;3.62;;
24637;SDS011;12773;50.162;8.548;2024-03-23T09:39:19;19.92;;;3.37;;
24637;SDS011;12773;50.162;8.548;2024-03-23T09:42:07;10.80;;;2.70;;
24637;SDS011;12773;50.162;8.548;2024-03-23T09:44:56;12.10;;;3.08;;
24637;SDS011;12773;50.162;8.548;2024-03-23T09:47:46;17.48;;;3.12;;
24637;SDS011;12773;50.162;8.548;2024-03-23T09:50:42;17.07;;;3.20;;
24637;SDS011;12773;50.162;8.548;2024-03-23T09:53:30;9.13;;;2.55;;
24637;SDS011;12773;50.162;8.548;2024-03-23T09:56:18;12.88;;;2.37;;
24637;SDS011;12773;50.162;8.548;2024-03-23T09:59:05;9.73;;;2.20;;
24637;SDS011;12773;50.162;8.548;2024-03-23T10:01:53;11.80;;;2.50;;
24637;SDS011;12773;50.162;8.548;2024-03-23T10:04:41;13.03;;;2.80;;
24637;SDS011;12773;50.162;8.548;2024-03-23T10:07:30;11.45;;;2.70;;
24637;SDS011;12773;50.162;8.548;2024-03-23T10:10:17;7.55;;;1.75;;
24637;SDS011;12773;50.162;8.548;2024-03-23T10:13:06;11.78;;;2.00;;
24637;SDS011;12773;50.162;8.548;2024-03-23T10:15:55;9.15;;;1.92;;
24637;SDS011;12773;50.162;8.548;2024-03-23T10:18:46;8.75;;;1.80;;
24637;SDS011;12773;50.162;8.548;2024-03-23T10:21:33;6.60;;;1.42;;
24637;SDS011;12773;50.162;8.548;2024-03-23T10:24:21;5.53;;;1.70;;
24637;SDS011;12773;50.162;8.548;2024-03-23T10:27:09;7.87;;;1.77;;
24637;SDS011;12773;50.162;8.548;2024-03-23T10:29:59;11.15;;;1.90;;
24637;SDS011;12773;50.162;8.548;2024-03-23T10:33:09;9.63;;;2.10;;
24637;SDS011;12773;50.162;8.548;2024-03-23T10:35:57;13.20;;;1.55;;
24637;SDS011;12773;50.162;8.548;2024-03-23T10:38:44;7.12;;;1.67;;
24637;SDS011;12773;50.162;8.548;2024-03-23T10:41:32;6.70;;;1.35;;
24637;SDS011;12773;50.162;8.548;2024-03-23T10:44:20;6.58;;;1.70;;
24637;SDS011;12773;50.162;8.548;2024-03-23T10:47:11;6.28;;;1.30;;
24637;SDS011;12773;50.162;8.548;2024-03-23T10:49:59;9.53;;;1.50;;
24637;SDS011;12773;50.162;8.548;2024-03-23T10:52:47;5.55;;;1.25;;
24637;SDS011;12773;50.162;8.548;2024-03-23T10:55:35;6.78;;;1.52;;
24637;SDS011;12773;50.162;8.548;2024-03-23T10:58:31;6.75;;;1.72;;
24637;SDS011;12773;50.162;8.548;2024-03-23T11:01:19;7.33;;;1.30;;
24637;SDS011;12773;50.162;8.548;2024-03-23T11:04:06;5.40;;;1.45;;
24637;SDS011;12773;50.162;8.548;2024-03-23T11:06:54;2.58;;;1.25;;
24637;SDS011;12773;50.162;8.548;2024-03-23T11:09:42;7.85;;;1.67;;
24637;SDS011;12773;50.162;8.548;2024-03-23T11:12:32;3.80;;;1.90;;
24637;SDS011;12773;50.162;8.548;2024-03-23T11:15:20;6.37;;;1.90;;
24637;SDS011;12773;50.162;8.548;2024-03-23T11:18:08;3.12;;;1.62;;
24637;SDS011;12773;50.162;8.548;2024-03-23T11:20:57;5.28;;;1.25;;
24637;SDS011;12773;50.162;8.548;2024-03-23T11:23:44;6.70;;;1.35;;
24637;SDS011;12773;50.162;8.548;2024-03-23T11:26:31;14.05;;;3.42;;
24637;SDS011;12773;50.162;8.548;2024-03-23T11:29:19;6.67;;;1.67;;
24637;SDS011;12773;50.162;8.548;2024-03-23T11:32:07;15.43;;;2.00;;
24637;SDS011;12773;50.162;8.548;2024-03-23T11:34:58;10.32;;;2.08;;
24637;SDS011;12773;50.162;8.548;2024-03-23T11:37:45;5.72;;;1.87;;
24637;SDS011;12773;50.162;8.548;2024-03-23T11:40:33;6.50;;;2.00;;
24637;SDS011;12773;50.162;8.548;2024-03-23T11:43:22;10.58;;;1.98;;
24637;SDS011;12773;50.162;8.548;2024-03-23T11:46:10;11.85;;;2.15;;
24637;SDS011;12773;50.162;8.548;2024-03-23T11:48:57;9.03;;;2.10;;
24637;SDS011;12773;50.162;8.548;2024-03-23T11:51:45;8.23;;;2.40;;
24637;SDS011;12773;50.162;8.548;2024-03-23T11:54:34;11.45;;;2.27;;
24637;SDS011;12773;50.162;8.548;2024-03-23T11:57:22;13.75;;;2.40;;
24637;SDS011;12773;50.162;8.548;2024-03-23T12:00:32;7.75;;;2.60;;
24637;SDS011;12773;50.162;8.548;2024-03-23T12:03:11;12.90;;;2.35;;
24637;SDS011;12773;50.162;8.548;2024-03-23T12:05:59;9.80;;;2.80;;
24637;SDS011;12773;50.162;8.548;2024-03-23T12:08:47;11.55;;;2.60;;
24637;SDS011;12773;50.162;8.548;2024-03-23T12:11:35;9.33;;;2.60;;
24637;SDS011;12773;50.162;8.548;2024-03-23T12:14:22;9.08;;;2.55;;
24637;SDS011;12773;50.162;8.548;2024-03-23T12:17:13;9.45;;;2.33;;
24637;SDS011;12773;50.162;8.548;2024-03-23T12:20:01;9.55;;;2.35;;
24637;SDS011;12773;50.162;8.548;2024-03-23T12:22:49;8.63;;;2.40;;
24637;SDS011;12773;50.162;8.548;2024-03-23T12:25:37;6.97;;;2.27;;
24637;SDS011;12773;50.162;8.548;2024-03-23T12:28:25;8.50;;;2.37;;
24637;SDS011;12773;50.162;8.548;2024-03-23T12:31:13;9.88;;;2.42;;
24637;SDS011;12773;50.162;8.548;2024-03-23T12:34:00;8.65;;;2.25;;
24637;SDS011;12773;50.162;8.548;2024-03-23T12:36:48;7.30;;;1.92;;
24637;SDS011;12773;50.162;8.548;2024-03-23T12:39:36;5.95;;;1.75;;
24637;SDS011;12773;50.162;8.548;2024-03-23T12:42:23;10.70;;;2.08;;
24637;SDS011;12773;50.162;8.548;2024-03-23T12:45:11;5.75;;;2.12;;
24637;SDS011;12773;50.162;8.548;2024-03-23T12:47:58;8.73;;;1.62;;
24637;SDS011;12773;50.162;8.548;2024-03-23T12:50:46;6.15;;;1.80;;
24637;SDS011;12773;50.162;8.548;2024-03-23T12:53:34;6.62;;;1.55;;
24637;SDS011;12773;50.162;8.548;2024-03-23T12:56:21;5.33;;;1.60;;
24637;SDS011;12773;50.162;8.548;2024-03-23T12:59:09;4.95;;;1.77;;
24637;SDS011;12773;50.162;8.548;2024-03-23T13:01:57;12.60;;;2.22;;
24637;SDS011;12773;50.162;8.548;2024-03-23T13:04:45;7.97;;;2.72;;
24637;SDS011;12773;50.162;8.548;2024-03-23T13:07:33;6.37;;;1.62;;
24637;SDS011;12773;50.162;8.548;2024-03-23T13:10:21;7.12;;;2.33;;
24637;SDS011;12773;50.162;8.548;2024-03-23T13:13:09;8.35;;;0.90;;
24637;SDS011;12773;50.162;8.548;2024-03-23T13:15:56;3.85;;;1.20;;
24637;SDS011;12773;50.162;8.548;2024-03-23T13:18:43;6.33;;;3.37;;
24637;SDS011;12773;50.162;8.548;2024-03-23T13:21:31;4.28;;;1.30;;
24637;SDS011;12773;50.162;8.548;2024-03-23T13:24:21;3.50;;;1.85;;
24637;SDS011;12773;50.162;8.548;2024-03-23T13:27:12;3.80;;;1.40;;
24637;SDS011;12773;50.162;8.548;2024-03-23T13:29:59;5.67;;;1.05;;
24637;SDS011;12773;50.162;8.548;2024-03-23T13:32:48;4.72;;;1.02;;
24637;SDS011;12773;50.162;8.548;2024-03-23T13:35:36;1.45;;;0.70;;
24637;SDS011;12773;50.162;8.548;2024-03-23T13:38:24;2.15;;;1.10;;
24637;SDS011;12773;50.162;8.548;2024-03-23T13:41:12;1.20;;;0.80;;
24637;SDS011;12773;50.162;8.548;2024-03-23T13:43:59;0.75;;;0.55;;
24637;SDS011;12773;50.162;8.548;2024-03-23T13:46:46;2.75;;;0.65;;
24637;SDS011;12773;50.162;8.548;2024-03-23T13:49:34;2.05;;;1.10;;
24637;SDS011;12773;50.162;8.548;2024-03-23T13:52:21;3.67;;;2.20;;
24637;SDS011;12773;50.162;8.548;2024-03-23T13:55:11;5.70;;;0.50;;
24637;SDS011;12773;50.162;8.548;2024-03-23T13:58:00;1.12;;;0.57;;
24637;SDS011;12773;50.162;8.548;2024-03-23T14:00:47;5.28;;;0.93;;
24637;SDS011;12773;50.162;8.548;2024-03-23T14:03:35;4.17;;;2.80;;
24637;SDS011;12773;50.162;8.548;2024-03-23T14:06:22;3.75;;;0.70;;
24637;SDS011;12773;50.162;8.548;2024-03-23T14:09:10;6.65;;;0.80;;
24637;SDS011;12773;50.162;8.548;2024-03-23T14:11:57;4.53;;;0.82;;
24637;SDS011;12773;50.162;8.548;2024-03-23T14:14:46;3.62;;;0.62;;
24637;SDS011;12773;50.162;8.548;2024-03-23T14:17:33;1.60;;;0.50;;
24637;SDS011;12773;50.162;8.548;2024-03-23T14:20:21;2.45;;;0.50;;
24637;SDS011;12773;50.162;8.548;2024-03-23T14:23:09;1.75;;;0.53;;
24637;SDS011;12773;50.162;8.548;2024-03-23T14:25:57;1.65;;;0.50;;
24637;SDS011;12773;50.162;8.548;2024-03-23T14:28:45;0.70;;;0.50;;
24637;SDS011;12773;50.162;8.548;2024-03-23T14:31:32;1.20;;;0.55;;
24637;SDS011;12773;50.162;8.548;2024-03-23T14:34:20;3.02;;;0.80;;
24637;SDS011;12773;50.162;8.548;2024-03-23T14:37:07;3.02;;;0.70;;
24637;SDS011;12773;50.162;8.548;2024-03-23T14:39:55;1.90;;;0.70;;
24637;SDS011;12773;50.162;8.548;2024-03-23T14:42:43;2.50;;;0.98;;
24637;SDS011;12773;50.162;8.548;2024-03-23T14:45:30;1.95;;;0.50;;
24637;SDS011;12773;50.162;8.548;2024-03-23T14:48:18;1.35;;;0.60;;
24637;SDS011;12773;50.162;8.548;2024-03-23T14:51:05;3.00;;;0.93;;
24637;SDS011;12773;50.162;8.548;2024-03-23T14:53:56;2.02;;;0.50;;
24637;SDS011;12773;50.162;8.548;2024-03-23T14:56:43;12.78;;;11.33;;
24637;SDS011;12773;50.162;8.548;2024-03-23T14:59:32;1.10;;;0.70;;
24637;SDS011;12773;50.162;8.548;2024-03-23T15:02:20;5.90;;;0.72;;
24637;SDS011;12773;50.162;8.548;2024-03-23T15:05:07;2.62;;;0.80;;
24637;SDS011;12773;50.162;8.548;2024-03-23T15:07:55;2.37;;;0.95;;
24637;SDS011;12773;50.162;8.548;2024-03-23T15:10:43;5.25;;;2.80;;
24637;SDS011;12773;50.162;8.548;2024-03-23T15:13:37;7.78;;;3.08;;
24637;SDS011;12773;50.162;8.548;2024-03-23T15:16:25;2.87;;;0.75;;
24637;SDS011;12773;50.162;8.548;2024-03-23T15:19:13;3.75;;;1.30;;
24637;SDS011;12773;50.162;8.548;2024-03-23T15:22:01;4.05;;;0.68;;
24637;SDS011;12773;50.162;8.548;2024-03-23T15:24:49;1.77;;;0.60;;
24637;SDS011;12773;50.162;8.548;2024-03-23T15:27:36;2.58;;;0.70;;
24637;SDS011;12773;50.162;8.548;2024-03-23T15:30:24;3.17;;;0.57;;
24637;SDS011;12773;50.162;8.548;2024-03-23T15:33:11;5.28;;;1.67;;
24637;SDS011;12773;50.162;8.548;2024-03-23T15:35:59;18.12;;;10.35;;
24637;SDS011;12773;50.162;8.548;2024-03-23T15:38:47;9.93;;;3.42;;
24637;SDS011;12773;50.162;8.548;2024-03-23T15:41:35;4.05;;;1.77;;
24637;SDS011;12773;50.162;8.548;2024-03-23T15:44:23;3.40;;;1.10;;
24637;SDS011;12773;50.162;8.548;2024-03-23T15:47:10;5.05;;;1.15;;
24637;SDS011;12773;50.162;8.548;2024-03-23T15:49:57;4.75;;;0.90;;
24637;SDS011;12773;50.162;8.548;2024-03-23T15:52:45;1.92;;;1.25;;
24637;SDS011;12773;50.162;8.548;2024-03-23T15:55:32;2.08;;;0.80;;
24637;SDS011;12773;50.162;8.548;2024-03-23T15:58:21;5.95;;;2.22;;
24637;SDS011;12773;50.162;8.548;2024-03-23T16:01:10;3.92;;;1.10;;
24637;SDS011;12773;50.162;8.548;2024-03-23T16:03:57;3.37;;;1.30;;
24637;SDS011;12773;50.162;8.548;2024-03-23T16:06:44;2.50;;;1.22;;
24637;SDS011;12773;50.162;8.548;2024-03-23T16:09:33;4.30;;;1.12;;
24637;SDS011;12773;50.162;8.548;2024-03-23T16:12:20;2.60;;;1.20;;
24637;SDS011;12773;50.162;8.548;2024-03-23T16:15:07;4.05;;;0.98;;
24637;SDS011;12773;50.162;8.548;2024-03-23T16:17:55;3.70;;;0.70;;
24637;SDS011;12773;50.162;8.548;2024-03-23T16:20:42;2.90;;;0.70;;
24637;SDS011;12773;50.162;8.548;2024-03-23T16:23:33;4.40;;;1.10;;
24637;SDS011;12773;50.162;8.548;2024-03-23T16:26:27;4.55;;;2.58;;
24637;SDS011;12773;50.162;8.548;2024-03-23T16:29:16;2.33;;;0.88;;
24637;SDS011;12773;50.162;8.548;2024-03-23T16:32:03;6.90;;;1.70;;
24637;SDS011;12773;50.162;8.548;2024-03-23T16:34:51;4.10;;;0.60;;
24637;SDS011;12773;50.162;8.548;2024-03-23T16:37:38;1.05;;;0.60;;
24637;SDS011;12773;50.162;8.548;2024-03-23T16:40:26;2.77;;;0.80;;
24637;SDS011;12773;50.162;8.548;2024-03-23T16:43:13;1.85;;;0.70;;
24637;SDS011;12773;50.162;8.548;2024-03-23T16:46:06;3.10;;;1.50;;
24637;SDS011;12773;50.162;8.548;2024-03-23T16:48:55;1.30;;;0.65;;
24637;SDS011;12773;50.162;8.548;2024-03-23T16:51:43;5.35;;;0.78;;
24637;SDS011;12773;50.162;8.548;2024-03-23T16:54:30;2.47;;;0.57;;
24637;SDS011;12773;50.162;8.548;2024-03-23T16:57:18;2.65;;;0.75;;
24637;SDS011;12773;50.162;8.548;2024-03-23T17:00:06;4.83;;;0.65;;
24637;SDS011;12773;50.162;8.548;2024-03-23T17:02:56;4.28;;;0.70;;
24637;SDS011;12773;50.162;8.548;2024-03-23T17:05:44;2.67;;;0.70;;
24637;SDS011;12773;50.162;8.548;2024-03-23T17:08:31;2.98;;;0.60;;
24637;SDS011;12773;50.162;8.548;2024-03-23T17:11:19;2.52;;;0.70;;
24637;SDS011;12773;50.162;8.548;2024-03-23T17:14:07;1.37;;;0.75;;
24637;SDS011;12773;50.162;8.548;2024-03-23T17:16:54;4.20;;;0.88;;
24637;SDS011;12773;50.162;8.548;2024-03-23T17:19:42;3.08;;;0.60;;
24637;SDS011;12773;50.162;8.548;2024-03-23T17:22:30;1.40;;;0.80;;
24637;SDS011;12773;50.162;8.548;2024-03-23T17:25:18;2.85;;;0.65;;
24637;SDS011;12773;50.162;8.548;2024-03-23T17:28:08;2.65;;;0.95;;
24637;SDS011;12773;50.162;8.548;2024-03-23T17:30:57;1.98;;;0.90;;
24637;SDS011;12773;50.162;8.548;2024-03-23T17:33:45;4.25;;;0.70;;
24637;SDS011;12773;50.162;8.548;2024-03-23T17:36:33;2.15;;;0.60;;
24637;SDS011;12773;50.162;8.548;2024-03-23T17:39:22;2.52;;;0.55;;